Time;durP1;ratioP1;P1;durP2;ratioP2;P2;SDS_P1;SDS_P2;PMS_P1;PMS_P2;Temp;Humidity;BMP_temperature;BMP_pressure;BME280_temperature;BME280_humidity;BME280_pressure;Samples;Min_cycle;Max_cycle;Signal;HPM_P1;HPM_P2
2023/11/24 00:00:09;;;;;;;1.80;1.35;;;;;;;5.98;100.00;97141.66;5112028;27;20101;-75
2023/11/24 00:02:35;;;;;;;1.88;1.52;;;;;;;5.95;100.00;97131.19;5101194;27;20019;-77
2023/11/24 00:05:00;;;;;;;1.33;1.23;;;;;;;5.99;100.00;97130.09;5114990;27;20032;-77
2023/11/24 00:07:26;;;;;;;7.97;2.40;;;;;;;5.95;100.00;97130.31;5114468;27;20042;-77
2023/11/24 00:09:52;;;;;;;1.75;1.00;;;;;;;6.06;100.00;97119.16;5106251;27;20115;-77
2023/11/24 00:12:18;;;;;;;1.40;1.33;;;;;;;6.09;100.00;97113.72;5106348;27;20011;-77
2023/11/24 00:14:44;;;;;;;1.75;1.58;;;;;;;6.12;100.00;97110.91;5115105;27;20092;-75
2023/11/24 00:17:10;;;;;;;2.15;1.55;;;;;;;6.16;100.00;97102.69;5103332;27;20443;-76
2023/11/24 00:19:35;;;;;;;1.80;1.48;;;;;;;6.24;100.00;97102.28;5105932;27;20028;-76
2023/11/24 00:22:01;;;;;;;1.40;1.30;;;;;;;6.27;100.00;97099.47;5117317;27;20027;-76
2023/11/24 00:24:27;;;;;;;1.27;1.02;;;;;;;6.45;100.00;97094.06;5126086;27;20075;-75
2023/11/24 00:26:53;;;;;;;1.25;1.15;;;;;;;6.54;100.00;97098.03;5125954;27;20019;-75
2023/11/24 00:29:19;;;;;;;3.10;2.78;;;;;;;6.50;100.00;97102.63;5114437;27;20027;-77
2023/11/24 00:31:45;;;;;;;1.17;1.08;;;;;;;6.52;100.00;97097.25;5125670;27;20482;-76
2023/11/24 00:34:11;;;;;;;2.25;2.03;;;;;;;6.50;100.00;97096.44;5094778;28;20406;-76
2023/11/24 00:36:36;;;;;;;1.98;1.75;;;;;;;6.42;100.00;97083.59;5111497;27;20031;-76
2023/11/24 00:39:04;;;;;;;2.40;1.67;;;;;;;6.40;100.00;97079.28;5125922;27;20394;-75
2023/11/24 00:41:29;;;;;;;5.55;1.67;;;;;;;6.36;100.00;97056.50;5120533;27;20080;-76
2023/11/24 00:43:55;;;;;;;4.63;2.28;;;;;;;6.30;100.00;97059.47;5116845;27;20034;-77
2023/11/24 00:46:21;;;;;;;1.50;1.40;;;;;;;6.36;100.00;97062.69;5104712;28;20387;-76
2023/11/24 00:48:47;;;;;;;3.08;2.47;;;;;;;6.33;100.00;97040.72;5101294;27;20499;-76
2023/11/24 00:51:14;;;;;;;2.53;1.13;;;;;;;6.44;100.00;97055.16;5105660;27;20070;-77
2023/11/24 00:53:40;;;;;;;1.60;1.50;;;;;;;6.67;100.00;97053.91;5122479;27;20085;-77
2023/11/24 00:56:06;;;;;;;2.92;2.08;;;;;;;7.10;100.00;97049.75;5105661;27;20101;-77
2023/11/24 00:58:32;;;;;;;3.17;1.42;;;;;;;7.49;100.00;97049.25;5120187;27;20467;-76
2023/11/24 01:01:00;;;;;;;3.72;1.20;;;;;;;7.69;100.00;97032.97;5121428;27;20034;-76
2023/11/24 01:03:26;;;;;;;1.13;0.88;;;;;;;8.01;100.00;97045.25;5101791;28;20032;-77
2023/11/24 01:05:53;;;;;;;9.30;2.33;;;;;;;8.23;100.00;97049.28;5106756;27;20192;-77
2023/11/24 01:08:19;;;;;;;1.02;1.02;;;;;;;8.29;100.00;97030.28;5100031;27;20110;-77
2023/11/24 01:10:46;;;;;;;0.75;0.75;;;;;;;8.59;100.00;97021.25;5107872;27;20023;-76
2023/11/24 01:13:14;;;;;;;0.73;0.73;;;;;;;9.02;100.00;97019.41;5119487;27;20347;-77
2023/11/24 01:15:40;;;;;;;0.88;0.88;;;;;;;9.15;100.00;97017.66;5096602;28;20026;-77
2023/11/24 01:18:06;;;;;;;1.75;1.48;;;;;;;9.38;100.00;97009.97;5105097;27;20019;-78
2023/11/24 01:20:35;;;;;;;1.50;0.80;;;;;;;9.61;100.00;96991.47;5122306;27;20469;-77
2023/11/24 01:23:01;;;;;;;0.73;0.73;;;;;;;9.68;100.00;96973.22;5121962;27;20027;-76
2023/11/24 01:25:27;;;;;;;4.57;1.85;;;;;;;9.85;100.00;96956.88;5101560;28;20012;-77
2023/11/24 01:27:53;;;;;;;0.88;0.77;;;;;;;9.89;100.00;96955.72;5097478;28;20031;-77
2023/11/24 01:30:19;;;;;;;0.57;0.57;;;;;;;9.89;100.00;96952.19;5119336;27;20857;-77
2023/11/24 01:32:44;;;;;;;1.65;1.25;;;;;;;9.83;100.00;96942.78;5127609;27;20031;-77
2023/11/24 01:35:10;;;;;;;0.60;0.60;;;;;;;9.94;100.00;96932.22;5122067;28;20028;-76
2023/11/24 01:37:36;;;;;;;1.20;0.80;;;;;;;9.92;100.00;96936.81;5106171;28;20096;-76
2023/11/24 01:40:04;;;;;;;1.25;1.15;;;;;;;9.82;100.00;96920.56;5100647;28;20062;-77
2023/11/24 01:42:29;;;;;;;1.98;1.02;;;;;;;9.96;100.00;96919.63;5124848;28;20031;-78
2023/11/24 01:44:55;;;;;;;1.17;0.60;;;;;;;10.06;100.00;96914.50;5110340;28;20112;-78
2023/11/24 01:47:21;;;;;;;1.38;1.05;;;;;;;10.05;100.00;96886.91;5113271;28;20111;-77
2023/11/24 01:49:47;;;;;;;1.23;0.85;;;;;;;9.97;100.00;96897.28;5099495;28;20035;-76
2023/11/24 01:52:13;;;;;;;0.75;0.70;;;;;;;9.90;100.00;96900.50;5124665;28;20497;-77
2023/11/24 01:54:41;;;;;;;0.55;0.47;;;;;;;9.82;100.00;96883.19;5107764;28;20016;-78
2023/11/24 01:57:07;;;;;;;1.30;1.17;;;;;;;9.78;100.00;96892.34;5113234;28;20046;-78
2023/11/24 01:59:36;;;;;;;2.75;1.38;;;;;;;9.75;100.00;96881.88;5110580;28;20168;-78
2023/11/24 02:02:02;;;;;;;1.15;0.60;;;;;;;9.77;100.00;96888.00;5107270;27;20406;-77
2023/11/24 02:04:28;;;;;;;2.28;0.77;;;;;;;9.78;100.00;96875.50;5124897;28;20023;-77
2023/11/24 02:06:57;;;;;;;1.85;1.55;;;;;;;9.79;100.00;96864.69;5096143;28;20035;-77
2023/11/24 02:09:23;;;;;;;3.63;1.52;;;;;;;9.79;100.00;96871.84;5105032;28;20081;-77
2023/11/24 02:11:49;;;;;;;0.82;0.82;;;;;;;9.80;100.00;96869.09;5099390;28;20043;-77
2023/11/24 02:14:18;;;;;;;0.75;0.52;;;;;;;9.72;100.00;96865.25;5130029;27;20474;-76
2023/11/24 02:16:44;;;;;;;0.25;0.25;;;;;;;9.65;100.00;96850.59;5113813;27;20118;-77
2023/11/24 02:19:11;;;;;;;1.35;0.63;;;;;;;9.54;100.00;96862.00;5128432;27;20374;-77
2023/11/24 02:21:37;;;;;;;4.95;2.70;;;;;;;9.39;100.00;96848.84;5131079;27;20159;-77
2023/11/24 02:24:05;;;;;;;0.65;0.65;;;;;;;9.28;100.00;96854.94;5105591;27;20102;-77
2023/11/24 02:26:31;;;;;;;1.42;0.90;;;;;;;9.21;100.00;96843.81;5114391;27;20057;-76
2023/11/24 02:29:05;;;;;;;1.10;0.88;;;;;;;9.12;100.00;96830.25;5108158;27;20069;-77
2023/11/24 02:31:34;;;;;;;0.77;0.77;;;;;;;9.03;100.00;96845.06;5113702;27;20103;-78
2023/11/24 02:33:59;;;;;;;12.40;3.45;;;;;;;8.96;100.00;96849.09;5099518;28;20032;-76
2023/11/24 02:36:30;;;;;;;0.65;0.65;;;;;;;8.86;100.00;96841.81;5099687;27;20111;-75
2023/11/24 02:38:56;;;;;;;1.20;0.45;;;;;;;8.92;100.00;96831.59;5100538;28;20027;-75
2023/11/24 02:41:21;;;;;;;0.80;0.70;;;;;;;8.93;100.00;96825.31;5121764;27;20038;-77
2023/11/24 02:43:47;;;;;;;1.27;1.10;;;;;;;9.02;100.00;96847.81;5127980;27;20099;-77
2023/11/24 02:46:13;;;;;;;1.17;0.93;;;;;;;9.00;100.00;96818.59;5110735;27;20030;-76
2023/11/24 02:48:43;;;;;;;1.33;1.23;;;;;;;9.00;100.00;96815.94;5122147;27;20027;-77
2023/11/24 02:51:09;;;;;;;0.40;0.40;;;;;;;8.95;100.00;96814.53;5110895;27;20029;-78
2023/11/24 02:53:37;;;;;;;0.77;0.57;;;;;;;9.01;100.00;96820.28;5116653;27;20052;-76
2023/11/24 02:56:03;;;;;;;1.73;1.00;;;;;;;8.99;100.00;96818.69;5113722;27;20030;-78
2023/11/24 02:58:29;;;;;;;1.25;0.95;;;;;;;8.88;100.00;96818.56;5102172;27;20027;-77
2023/11/24 03:00:55;;;;;;;1.25;1.02;;;;;;;8.79;100.00;96805.84;5113493;27;20438;-78
2023/11/24 03:03:22;;;;;;;0.40;0.40;;;;;;;8.79;100.00;96808.53;5105026;27;20031;-77
2023/11/24 03:05:51;;;;;;;0.47;0.47;;;;;;;8.73;100.00;96800.94;5121264;27;20027;-76
2023/11/24 03:08:17;;;;;;;0.77;0.68;;;;;;;8.72;100.00;96802.75;5105825;27;20034;-76
2023/11/24 03:10:43;;;;;;;0.77;0.77;;;;;;;8.65;100.00;96801.44;5107507;27;20110;-76
2023/11/24 03:13:09;;;;;;;1.23;0.88;;;;;;;8.59;100.00;96789.38;5110260;27;20494;-76
2023/11/24 03:15:35;;;;;;;1.70;0.70;;;;;;;8.60;100.00;96795.56;5115865;27;20034;-76
2023/11/24 03:18:01;;;;;;;3.20;1.10;;;;;;;8.58;100.00;96790.31;5116056;27;20481;-77
2023/11/24 03:20:27;;;;;;;0.40;0.40;;;;;;;8.54;100.00;96778.16;5121476;27;20038;-77
2023/11/24 03:22:52;;;;;;;1.73;1.08;;;;;;;8.47;100.00;96768.84;5121654;27;20038;-77
2023/11/24 03:25:18;;;;;;;1.48;1.15;;;;;;;8.41;100.00;96763.94;5099664;28;20478;-77
2023/11/24 03:27:44;;;;;;;2.78;1.80;;;;;;;8.50;100.00;96759.81;5126196;27;20030;-77
2023/11/24 03:30:10;;;;;;;2.65;1.13;;;;;;;8.52;100.00;96752.56;5118763;27;20162;-78
2023/11/24 03:32:35;;;;;;;0.73;0.73;;;;;;;8.52;100.00;96752.56;5101554;27;20019;-78
2023/11/24 03:35:01;;;;;;;10.15;6.47;;;;;;;8.62;100.00;96750.97;5107338;27;20023;-78
2023/11/24 03:37:27;;;;;;;8.30;2.83;;;;;;;8.57;100.00;96742.44;5115637;27;20027;-79
2023/11/24 03:39:53;;;;;;;0.57;0.57;;;;;;;8.68;100.00;96738.09;5132614;27;20076;-78
2023/11/24 03:42:19;;;;;;;3.47;1.55;;;;;;;8.69;100.00;96722.97;5112427;27;20107;-77
2023/11/24 03:44:45;;;;;;;2.85;2.03;;;;;;;8.73;100.00;96728.94;5104443;27;20394;-78
2023/11/24 03:47:10;;;;;;;0.90;0.90;;;;;;;8.76;100.00;96721.59;5115480;27;20110;-76
2023/11/24 03:49:36;;;;;;;1.58;1.38;;;;;;;8.84;100.00;96711.25;5098470;27;20106;-78
2023/11/24 03:52:02;;;;;;;2.40;2.20;;;;;;;8.90;100.00;96716.16;5102933;28;20020;-76
2023/11/24 03:54:27;;;;;;;3.03;1.50;;;;;;;8.93;100.00;96713.28;5104994;27;20047;-78
2023/11/24 03:56:53;;;;;;;3.05;1.45;;;;;;;9.01;100.00;96702.94;5106542;27;20031;-76
2023/11/24 03:59:19;;;;;;;7.07;1.58;;;;;;;9.06;100.00;96698.16;5112201;27;20485;-76
2023/11/24 04:01:45;;;;;;;5.07;1.77;;;;;;;9.04;100.00;96694.75;5103615;27;20023;-77
2023/11/24 04:04:10;;;;;;;0.73;0.55;;;;;;;9.13;100.00;96706.59;5107353;28;20030;-76
2023/11/24 04:06:36;;;;;;;1.60;1.50;;;;;;;9.09;100.00;96700.59;5128512;27;20031;-77
2023/11/24 04:09:01;;;;;;;2.70;1.92;;;;;;;9.13;100.00;96686.09;5125648;27;20053;-77
2023/11/24 04:11:27;;;;;;;1.48;1.15;;;;;;;9.15;100.00;96684.19;5112494;27;20027;-77
2023/11/24 04:13:53;;;;;;;1.52;1.27;;;;;;;9.20;100.00;96681.16;5120612;27;20049;-77
2023/11/24 04:16:19;;;;;;;4.53;1.35;;;;;;;9.40;100.00;96685.09;5106232;27;20027;-78
2023/11/24 04:18:45;;;;;;;1.27;1.08;;;;;;;9.46;100.00;96682.00;5108917;27;20027;-78
2023/11/24 04:21:11;;;;;;;1.55;0.57;;;;;;;9.59;100.00;96685.50;5132002;27;20031;-76
2023/11/24 04:23:38;;;;;;;1.25;1.15;;;;;;;9.76;100.00;96679.78;5106020;27;20465;-77
2023/11/24 04:26:03;;;;;;;1.13;0.88;;;;;;;9.92;100.00;96667.03;5097674;27;20106;-78
2023/11/24 04:28:29;;;;;;;1.95;1.50;;;;;;;10.07;100.00;96665.91;5105813;27;20058;-77
2023/11/24 04:30:55;;;;;;;0.82;0.75;;;;;;;10.26;100.00;96647.56;5109138;27;20062;-77
2023/11/24 04:33:20;;;;;;;1.67;1.58;;;;;;;10.46;100.00;96647.88;5126087;27;20027;-76
2023/11/24 04:35:47;;;;;;;0.88;0.80;;;;;;;10.73;100.00;96653.81;5102282;27;20080;-73
2023/11/24 04:38:12;;;;;;;0.50;0.50;;;;;;;11.01;100.00;96642.66;5115902;27;20098;-75
2023/11/24 04:40:38;;;;;;;1.35;1.02;;;;;;;10.95;100.00;96635.09;5112221;27;20197;-74
2023/11/24 04:43:04;;;;;;;0.63;0.63;;;;;;;10.87;100.00;96643.72;5097071;27;20034;-74
2023/11/24 04:45:30;;;;;;;0.73;0.73;;;;;;;10.52;100.00;96604.66;5105521;27;20033;-74
2023/11/24 04:47:56;;;;;;;1.65;1.10;;;;;;;10.57;100.00;96631.88;5113930;27;20168;-74
2023/11/24 04:50:22;;;;;;;4.43;2.28;;;;;;;10.43;100.00;96621.38;5123650;27;20106;-74
2023/11/24 04:52:48;;;;;;;2.85;0.73;;;;;;;10.41;100.00;96636.69;5113110;27;20019;-74
2023/11/24 04:55:15;;;;;;;11.02;1.20;;;;;;;10.25;100.00;96628.97;5130973;27;20026;-74
2023/11/24 04:57:41;;;;;;;1.48;1.08;;;;;;;10.28;100.00;96634.94;5130994;27;20018;-74
2023/11/24 05:00:07;;;;;;;2.05;1.35;;;;;;;10.25;100.00;96626.28;5099589;27;20451;-74
2023/11/24 05:02:33;;;;;;;0.93;0.93;;;;;;;10.13;100.00;96614.72;5113535;27;20114;-74
2023/11/24 05:04:59;;;;;;;2.80;1.52;;;;;;;10.25;100.00;96624.47;5116623;27;20427;-73
2023/11/24 05:07:26;;;;;;;0.70;0.70;;;;;;;10.27;100.00;96621.69;5105730;28;20123;-73
2023/11/24 05:09:51;;;;;;;0.70;0.57;;;;;;;10.19;100.00;96586.66;5104608;27;20027;-74
2023/11/24 05:12:17;;;;;;;1.67;1.58;;;;;;;10.40;100.00;96625.13;5098623;28;20065;-74
2023/11/24 05:14:42;;;;;;;2.35;1.42;;;;;;;10.45;100.00;96620.28;5097509;27;20031;-75
2023/11/24 05:17:08;;;;;;;1.02;0.88;;;;;;;10.39;100.00;96593.19;5104722;27;20038;-75
2023/11/24 05:19:34;;;;;;;1.10;0.93;;;;;;;10.43;100.00;96594.66;5113392;27;20075;-75
2023/11/24 05:21:59;;;;;;;1.65;1.13;;;;;;;10.59;100.00;96600.50;5104950;27;20502;-77
2023/11/24 05:24:25;;;;;;;2.67;1.05;;;;;;;10.63;100.00;96601.97;5128214;27;20031;-75
2023/11/24 05:26:51;;;;;;;2.15;1.38;;;;;;;10.79;100.00;96586.47;5102287;28;20118;-76
2023/11/24 05:29:16;;;;;;;1.75;1.33;;;;;;;10.85;100.00;96608.22;5110961;28;20027;-76
2023/11/24 05:31:42;;;;;;;8.15;1.45;;;;;;;10.91;100.00;96588.16;5099224;28;20019;-76
2023/11/24 05:34:08;;;;;;;24.08;9.45;;;;;;;11.02;100.00;96601.53;5113659;28;20064;-74
2023/11/24 05:36:33;;;;;;;29.02;12.68;;;;;;;11.04;100.00;96582.69;5128128;27;20402;-75
2023/11/24 05:38:59;;;;;;;28.08;12.63;;;;;;;11.13;100.00;96596.22;5121860;28;20023;-76
2023/11/24 05:41:28;;;;;;;27.65;12.77;;;;;;;11.13;100.00;96585.50;5110655;28;20433;-75
2023/11/24 05:43:54;;;;;;;29.45;14.68;;;;;;;11.24;100.00;96574.78;5102466;28;20039;-76
2023/11/24 05:46:20;;;;;;;38.00;16.70;;;;;;;11.33;100.00;96576.72;5102033;28;20130;-76
2023/11/24 05:48:46;;;;;;;32.47;16.15;;;;;;;11.50;100.00;96587.91;5111774;27;20064;-76
2023/11/24 05:51:12;;;;;;;42.00;17.42;;;;;;;11.69;100.00;96570.19;5114869;27;20031;-75
2023/11/24 05:53:38;;;;;;;45.72;13.48;;;;;;;11.80;100.00;96580.06;5111817;27;20019;-75
2023/11/24 05:56:07;;;;;;;29.10;10.82;;;;;;;11.89;100.00;96579.31;5117183;27;20106;-77
2023/11/24 05:58:34;;;;;;;16.33;9.38;;;;;;;11.95;100.00;96579.66;5110185;28;20024;-76
2023/11/24 06:01:00;;;;;;;16.80;7.13;;;;;;;12.06;100.00;96576.06;5125290;27;20145;-77
2023/11/24 06:03:26;;;;;;;11.18;6.85;;;;;;;12.14;100.00;96568.25;5105441;28;20110;-76
2023/11/24 06:05:53;;;;;;;26.52;10.15;;;;;;;12.17;100.00;96562.63;5108177;28;20027;-76
2023/11/24 06:08:19;;;;;;;27.20;11.10;;;;;;;12.17;100.00;96546.56;5115077;27;20034;-75
2023/11/24 06:10:47;;;;;;;18.15;9.95;;;;;;;12.26;100.00;96564.53;5134429;27;20462;-77
2023/11/24 06:13:13;;;;;;;22.20;11.13;;;;;;;12.28;100.00;96564.38;5112004;27;20027;-78
2023/11/24 06:15:39;;;;;;;23.58;8.77;;;;;;;12.34;100.00;96562.06;5106897;28;20445;-76
2023/11/24 06:18:04;;;;;;;14.55;8.93;;;;;;;12.38;100.00;96560.81;5116269;27;20011;-77
2023/11/24 06:20:30;;;;;;;11.10;5.20;;;;;;;12.50;100.00;96565.13;5117298;27;20033;-76
2023/11/24 06:22:55;;;;;;;21.10;10.75;;;;;;;12.62;100.00;96541.75;5108527;27;20031;-76
2023/11/24 06:25:21;;;;;;;53.80;39.17;;;;;;;12.76;100.00;96564.75;5128421;27;20062;-76
2023/11/24 06:27:47;;;;;;;22.70;13.95;;;;;;;12.83;100.00;96561.38;5117342;27;20032;-76
2023/11/24 06:30:13;;;;;;;24.98;11.38;;;;;;;12.92;100.00;96551.69;5099945;27;20031;-76
2023/11/24 06:32:39;;;;;;;47.83;24.33;;;;;;;12.93;100.00;96562.28;5118255;27;20015;-76
2023/11/24 06:35:10;;;;;;;41.70;21.08;;;;;;;12.99;100.00;96550.16;5101167;27;20535;-76
2023/11/24 06:37:36;;;;;;;129.95;44.40;;;;;;;13.10;100.00;96558.16;5111006;28;20089;-76
2023/11/24 06:40:05;;;;;;;48.22;17.73;;;;;;;13.14;100.00;96538.09;5114738;27;20479;-75
2023/11/24 06:42:30;;;;;;;56.08;24.98;;;;;;;13.37;100.00;96558.41;5117239;27;20035;-75
2023/11/24 06:44:56;;;;;;;101.18;43.13;;;;;;;13.68;100.00;96536.84;5108194;27;20089;-76
2023/11/24 06:47:23;;;;;;;90.05;38.88;;;;;;;14.68;100.00;96533.72;5118246;27;20032;-77
2023/11/24 06:49:52;;;;;;;106.25;40.25;;;;;;;15.78;100.00;96532.03;5104610;27;20023;-77
2023/11/24 06:52:18;;;;;;;81.70;32.25;;;;;;;16.46;100.00;96519.69;5099918;27;20067;-75
2023/11/24 06:54:44;;;;;;;31.90;12.98;;;;;;;18.00;100.00;96500.59;5123624;27;20059;-76
2023/11/24 06:57:10;;;;;;;83.63;34.60;;;;;;;19.29;100.00;96483.41;5101622;28;20059;-75
2023/11/24 06:59:37;;;;;;;44.88;20.17;;;;;;;20.41;96.56;96471.13;5120931;27;20496;-77
2023/11/24 07:02:03;;;;;;;39.53;17.58;;;;;;;21.48;85.68;96461.72;5116440;27;20058;-75
2023/11/24 07:04:29;;;;;;;39.63;14.40;;;;;;;21.96;83.60;96454.84;5107833;27;20028;-78
2023/11/24 07:06:54;;;;;;;26.92;12.13;;;;;;;22.87;71.49;96451.31;5116592;27;20088;-77
2023/11/24 07:09:20;;;;;;;28.50;10.82;;;;;;;23.92;62.78;96438.28;5116210;27;20064;-77
2023/11/24 07:11:47;;;;;;;52.33;19.38;;;;;;;25.09;56.10;96437.66;5112808;28;20448;-77
2023/11/24 07:14:13;;;;;;;34.95;12.82;;;;;;;25.93;52.16;96415.72;5129269;27;20027;-76
2023/11/24 07:16:39;;;;;;;33.05;13.13;;;;;;;25.55;50.37;96415.66;5116240;27;20114;-76
2023/11/24 07:19:05;;;;;;;56.40;23.65;;;;;;;24.09;52.82;96404.91;5133186;27;20118;-77
2023/11/24 07:21:31;;;;;;;30.10;11.82;;;;;;;22.80;60.24;96424.00;5120110;27;20019;-75
2023/11/24 07:23:57;;;;;;;34.40;11.65;;;;;;;22.01;66.43;96428.72;5104029;28;20480;-76
2023/11/24 07:26:22;;;;;;;18.52;8.93;;;;;;;20.62;80.61;96437.84;5104154;27;20111;-76
2023/11/24 07:28:48;;;;;;;19.75;8.30;;;;;;;19.49;85.15;96433.22;5110303;27;20023;-77
2023/11/24 07:31:20;;;;;;;25.30;10.15;;;;;;;18.87;94.03;96437.66;5102471;28;20070;-77
2023/11/24 07:33:48;;;;;;;23.50;10.43;;;;;;;18.35;100.00;96450.72;5107477;28;20563;-75
2023/11/24 07:36:21;;;;;;;18.65;7.72;;;;;;;18.18;100.00;96446.34;5112538;28;20039;-77
2023/11/24 07:38:47;;;;;;;34.03;12.13;;;;;;;18.07;100.00;96444.81;5115974;27;20050;-77
2023/11/24 07:41:14;;;;;;;12.50;5.28;;;;;;;17.85;100.00;96431.91;5103832;27;20200;-77
2023/11/24 07:43:40;;;;;;;12.13;5.65;;;;;;;17.77;100.00;96435.47;5132794;27;20031;-77
2023/11/24 07:46:07;;;;;;;11.57;4.85;;;;;;;17.58;100.00;96430.34;5126879;27;20034;-75
2023/11/24 07:48:40;;;;;;;7.78;2.67;;;;;;;17.25;98.26;96417.72;5115503;27;20118;-76
2023/11/24 07:51:06;;;;;;;6.82;3.38;;;;;;;17.08;100.00;96414.09;5106604;27;20111;-77
2023/11/24 07:53:32;;;;;;;6.65;3.45;;;;;;;17.07;100.00;96422.38;5111864;28;20111;-75
2023/11/24 07:55:58;;;;;;;11.10;3.20;;;;;;;17.10;100.00;96424.75;5095249;28;20135;-77
2023/11/24 07:58:24;;;;;;;7.53;3.70;;;;;;;17.09;100.00;96423.06;5105955;27;20031;-75
2023/11/24 08:00:50;;;;;;;5.53;3.08;;;;;;;16.93;100.00;96414.88;5132715;27;20109;-77
2023/11/24 08:03:17;;;;;;;6.43;3.30;;;;;;;16.76;100.00;96425.59;5122836;27;20091;-77
2023/11/24 08:05:43;;;;;;;4.03;2.70;;;;;;;16.76;100.00;96422.06;5114001;27;20024;-77
2023/11/24 08:08:09;;;;;;;6.05;3.75;;;;;;;16.78;100.00;96429.00;5115494;27;20426;-77
2023/11/24 08:10:35;;;;;;;6.05;3.00;;;;;;;16.59;100.00;96421.13;5131263;27;20057;-75
2023/11/24 08:13:02;;;;;;;23.45;6.88;;;;;;;16.54;100.00;96423.47;5115159;27;20049;-77
2023/11/24 08:15:27;;;;;;;8.18;4.47;;;;;;;16.51;100.00;96426.44;5103670;27;20046;-76
2023/11/24 08:17:53;;;;;;;9.32;3.72;;;;;;;16.39;100.00;96422.31;5106514;27;20015;-79
2023/11/24 08:20:19;;;;;;;11.63;5.18;;;;;;;16.25;100.00;96409.38;5111988;27;20030;-76
2023/11/24 08:22:45;;;;;;;18.70;5.20;;;;;;;16.14;100.00;96406.94;5103561;27;20028;-78
2023/11/24 08:25:11;;;;;;;10.00;4.80;;;;;;;16.16;100.00;96427.38;5106407;27;20027;-77
2023/11/24 08:27:38;;;;;;;7.38;5.28;;;;;;;16.12;100.00;96407.09;5103010;28;20035;-75
2023/11/24 08:30:10;;;;;;;15.13;5.63;;;;;;;16.13;100.00;96407.94;5101731;27;20482;-76
2023/11/24 08:32:37;;;;;;;8.27;5.78;;;;;;;16.02;100.00;96414.44;5104015;27;20019;-76
2023/11/24 08:35:04;;;;;;;11.43;5.55;;;;;;;15.92;100.00;96411.00;5108871;27;20084;-76
2023/11/24 08:37:30;;;;;;;52.88;8.50;;;;;;;15.91;100.00;96401.19;5114607;27;20089;-75
2023/11/24 08:39:55;;;;;;;17.70;5.80;;;;;;;15.85;100.00;96400.97;5100524;27;20027;-77
2023/11/24 08:42:24;;;;;;;26.13;5.90;;;;;;;15.71;100.00;96400.53;5111360;27;20035;-76
2023/11/24 08:44:50;;;;;;;32.95;6.45;;;;;;;15.71;100.00;96376.28;5123246;27;20019;-76
2023/11/24 08:47:15;;;;;;;18.98;5.82;;;;;;;15.79;100.00;96371.94;5120631;27;20081;-75
2023/11/24 08:49:41;;;;;;;31.95;7.05;;;;;;;15.83;100.00;96379.56;5128442;27;20043;-76
2023/11/24 08:52:09;;;;;;;7.97;4.85;;;;;;;15.83;100.00;96376.00;5116098;27;20115;-78
2023/11/24 08:54:36;;;;;;;10.68;5.85;;;;;;;15.86;100.00;96359.53;5110399;27;20157;-76
2023/11/24 08:57:04;;;;;;;13.35;5.63;;;;;;;15.86;100.00;96357.69;5117056;27;20054;-77
2023/11/24 08:59:29;;;;;;;22.50;7.68;;;;;;;15.88;100.00;96369.16;5114903;27;20027;-76
2023/11/24 09:01:55;;;;;;;22.30;7.00;;;;;;;15.92;100.00;96369.69;5100834;28;20032;-76
2023/11/24 09:04:22;;;;;;;15.32;6.10;;;;;;;15.84;100.00;96362.41;5107953;27;20434;-76
2023/11/24 09:06:47;;;;;;;14.38;5.32;;;;;;;15.79;100.00;96343.13;5104995;28;20466;-76
2023/11/24 09:09:13;;;;;;;12.02;5.45;;;;;;;15.86;100.00;96343.34;5104845;28;20122;-76
2023/11/24 09:11:38;;;;;;;9.52;5.45;;;;;;;15.84;100.00;96339.97;5100987;27;20031;-76
2023/11/24 09:14:05;;;;;;;12.40;4.75;;;;;;;15.75;100.00;96327.44;5113489;27;20031;-76
2023/11/24 09:16:31;;;;;;;15.10;5.60;;;;;;;15.85;100.00;96330.84;5119352;27;20050;-77
2023/11/24 09:18:58;;;;;;;14.45;8.27;;;;;;;15.82;100.00;96325.78;5130886;27;20114;-76
2023/11/24 09:21:24;;;;;;;25.33;6.13;;;;;;;15.90;100.00;96320.47;5124880;27;20430;-76
2023/11/24 09:23:50;;;;;;;15.82;5.55;;;;;;;15.89;100.00;96310.66;5105182;28;20466;-76
2023/11/24 09:26:15;;;;;;;16.70;8.15;;;;;;;15.92;100.00;96307.66;5103877;28;20050;-76
2023/11/24 09:28:41;;;;;;;11.15;6.20;;;;;;;15.94;100.00;96300.25;5115925;28;20356;-75
2023/11/24 09:31:12;;;;;;;11.48;5.90;;;;;;;15.93;100.00;96306.66;5104577;28;20019;-77
2023/11/24 09:33:38;;;;;;;14.57;5.32;;;;;;;16.00;100.00;96300.47;5111490;28;20027;-76
2023/11/24 09:36:05;;;;;;;14.95;8.05;;;;;;;16.01;100.00;96298.59;5111435;27;20031;-75
2023/11/24 09:38:31;;;;;;;11.80;6.40;;;;;;;15.87;100.00;96288.41;5093339;28;20028;-76
2023/11/24 09:41:01;;;;;;;16.77;6.18;;;;;;;15.91;100.00;96281.69;5101090;28;20051;-76
2023/11/24 09:43:28;;;;;;;11.63;6.30;;;;;;;15.86;100.00;96290.25;5096128;28;20130;-76
2023/11/24 09:45:56;;;;;;;12.98;5.30;;;;;;;15.91;100.00;96281.69;5124767;28;20031;-76
2023/11/24 09:48:22;;;;;;;14.10;4.82;;;;;;;15.91;100.00;96276.28;5105307;28;20030;-76
2023/11/24 09:50:49;;;;;;;9.15;4.80;;;;;;;15.98;100.00;96271.97;5099237;28;20110;-76
2023/11/24 09:53:17;;;;;;;9.82;5.20;;;;;;;15.97;100.00;96267.56;5124271;27;20441;-76
2023/11/24 09:55:44;;;;;;;20.63;6.45;;;;;;;16.03;100.00;96266.91;5102128;28;20024;-78
2023/11/24 09:58:10;;;;;;;13.63;6.55;;;;;;;15.83;100.00;96262.75;5102466;28;20022;-76
2023/11/24 10:00:35;;;;;;;20.50;7.22;;;;;;;15.87;100.00;96246.13;5102036;28;20085;-76
2023/11/24 10:03:06;;;;;;;18.27;6.63;;;;;;;15.93;100.00;96236.53;5107039;28;20024;-77
2023/11/24 10:05:32;;;;;;;17.73;9.38;;;;;;;15.98;100.00;96239.59;5118955;28;20019;-76
2023/11/24 10:07:59;;;;;;;15.57;7.65;;;;;;;16.14;100.00;96218.94;5110501;28;20027;-76
2023/11/24 10:10:28;;;;;;;15.75;7.20;;;;;;;16.24;100.00;96232.31;5109500;28;20023;-76
2023/11/24 10:12:58;;;;;;;18.33;7.50;;;;;;;16.16;100.00;96229.56;5099000;28;20458;-76
2023/11/24 10:15:24;;;;;;;13.18;6.50;;;;;;;16.23;100.00;96219.81;5117002;28;20023;-76
2023/11/24 10:17:50;;;;;;;25.70;10.30;;;;;;;16.31;100.00;96225.25;5105078;28;20509;-76
2023/11/24 10:20:22;;;;;;;21.23;8.90;;;;;;;16.35;100.00;96226.63;5102689;28;20032;-75
2023/11/24 10:22:51;;;;;;;46.85;16.13;;;;;;;16.27;100.00;96226.59;5111961;28;20035;-76
2023/11/24 10:25:21;;;;;;;47.42;17.25;;;;;;;16.22;100.00;96215.44;5125094;28;20031;-76
2023/11/24 10:27:47;;;;;;;14.90;7.53;;;;;;;15.96;100.00;96214.66;5107300;28;20031;-76
2023/11/24 10:30:13;;;;;;;39.10;14.88;;;;;;;16.01;100.00;96210.44;5113381;28;20031;-75
2023/11/24 10:32:39;;;;;;;27.75;11.52;;;;;;;15.91;100.00;96208.88;5122368;28;20030;-78
2023/11/24 10:35:06;;;;;;;15.32;6.10;;;;;;;15.87;100.00;96210.22;5104474;27;20031;-77
2023/11/24 10:37:33;;;;;;;13.30;6.05;;;;;;;15.84;100.00;96205.16;5114806;27;20038;-76
2023/11/24 10:40:00;;;;;;;14.48;7.22;;;;;;;15.85;100.00;96193.31;5104458;27;20023;-78
2023/11/24 10:42:32;;;;;;;19.40;7.03;;;;;;;15.83;100.00;96187.25;5108166;27;20035;-76
2023/11/24 10:45:04;;;;;;;32.05;9.50;;;;;;;15.80;100.00;96184.88;5128016;27;20023;-76
2023/11/24 10:47:36;;;;;;;14.88;6.40;;;;;;;15.69;100.00;96170.66;5117143;27;20482;-76
2023/11/24 10:50:09;;;;;;;;;;;;;;;15.66;100.00;96176.38;5106335;28;20476;-75
2023/11/24 10:52:41;;;;;;;8.70;4.90;;;;;;;15.61;100.00;96167.94;5100720;27;19915;-77
2023/11/24 10:55:13;;;;;;;16.53;5.73;;;;;;;15.72;100.00;96164.09;5113738;27;20023;-76
2023/11/24 10:57:39;;;;;;;;;;;;;;;15.87;100.00;96167.06;5129774;27;20266;-76
2023/11/24 11:00:05;;;;;;;15.77;7.72;;;;;;;15.91;100.00;96142.28;5121380;27;19922;-77
2023/11/24 11:02:36;;;;;;;20.25;7.07;;;;;;;15.95;100.00;96138.28;5104672;28;20497;-76
2023/11/24 11:05:13;;;;;;;38.40;7.43;;;;;;;16.04;100.00;96147.25;5126425;27;20448;-76
2023/11/24 11:08:22;;;;;;;32.33;18.80;;;;;;;16.10;100.00;96135.78;5116648;27;20402;-76
2023/11/24 11:11:01;;;;;;;23.40;9.52;;;;;;;16.08;100.00;96135.13;5126888;27;20081;-75
2023/11/24 11:13:30;;;;;;;13.27;7.35;;;;;;;16.08;100.00;96124.34;5124103;27;20459;-76
2023/11/24 11:15:55;;;;;;;16.30;9.07;;;;;;;16.04;100.00;96120.28;5108150;27;20123;-76
2023/11/24 11:18:25;;;;;;;30.80;10.68;;;;;;;16.02;100.00;96122.28;5122122;27;20099;-75
2023/11/24 11:20:51;;;;;;;22.02;10.32;;;;;;;16.19;100.00;96113.22;5124811;27;20035;-75